Time;durP1;ratioP1;P1;durP2;ratioP2;P2;SDS_P1;SDS_P2;PMS_P1;PMS_P2;Temp;Humidity;BMP_temperature;BMP_pressure;BME280_temperature;BME280_humidity;BME280_pressure;Samples;Min_cycle;Max_cycle;Signal;HPM_P1;HPM_P2
2023/10/13 00:00:40;;;;;;;12.75;3.60;;;;;;;18.85;78.11;101095.94;5046896;27;96727;-74
2023/10/13 00:03:14;;;;;;;11.90;3.50;;;;;;;19.00;77.53;101094.09;5049343;27;99267;-75
2023/10/13 00:05:42;;;;;;;10.10;2.92;;;;;;;18.78;77.83;101086.59;5047835;27;98818;-75
2023/10/13 00:08:10;;;;;;;13.27;3.25;;;;;;;18.96;76.97;101084.56;5049385;27;96889;-74
2023/10/13 00:10:38;;;;;;;10.10;2.60;;;;;;;18.98;76.48;101077.25;5050914;27;96762;-74
2023/10/13 00:13:11;;;;;;;8.73;3.28;;;;;;;19.04;77.06;101079.53;5049884;27;98986;-74
2023/10/13 00:15:46;;;;;;;6.55;2.83;;;;;;;18.86;77.73;101078.06;5054095;27;99462;-74
2023/10/13 00:18:13;;;;;;;9.15;3.33;;;;;;;18.99;77.17;101073.63;5052689;27;96853;-74
2023/10/13 00:20:48;;;;;;;10.85;3.67;;;;;;;18.91;77.07;101070.59;5052553;27;96743;-74
2023/10/13 00:23:15;;;;;;;9.88;3.20;;;;;;;18.94;77.10;101071.25;5048786;27;99312;-74
2023/10/13 00:25:49;;;;;;;8.68;3.42;;;;;;;18.93;77.24;101074.91;5053246;27;98908;-74
2023/10/13 00:28:23;;;;;;;10.10;3.90;;;;;;;19.00;77.73;101070.84;5049289;27;97501;-74
2023/10/13 00:30:51;;;;;;;8.43;3.70;;;;;;;19.26;76.59;101068.28;5052094;27;100580;-74
2023/10/13 00:33:19;;;;;;;12.02;4.03;;;;;;;19.14;76.40;101067.28;5046125;27;99450;-74
2023/10/13 00:35:47;;;;;;;12.38;4.57;;;;;;;19.08;77.01;101065.88;5051205;27;98808;-74
2023/10/13 00:38:14;;;;;;;14.02;4.13;;;;;;;18.99;77.96;101070.94;5053757;27;96928;-74
2023/10/13 00:40:51;;;;;;;8.77;4.15;;;;;;;19.03;77.59;101057.25;5051171;27;96826;-73
2023/10/13 00:43:29;;;;;;;10.65;4.10;;;;;;;19.06;77.75;101054.38;5047337;27;98768;-74
2023/10/13 00:45:57;;;;;;;10.25;3.92;;;;;;;19.19;76.86;101053.56;5052524;27;100989;-74
2023/10/13 00:48:28;;;;;;;17.15;3.50;;;;;;;18.97;77.33;101057.66;5049916;27;101545;-74
2023/10/13 00:50:57;;;;;;;8.18;3.85;;;;;;;19.11;77.07;101046.91;5050169;27;96880;-73
2023/10/13 00:53:25;;;;;;;10.25;3.55;;;;;;;18.94;77.29;101043.63;5053001;27;96905;-73
2023/10/13 00:55:51;;;;;;;6.13;3.33;;;;;;;19.03;77.04;101043.84;5054120;27;98803;-74
2023/10/13 00:58:22;;;;;;;15.77;3.28;;;;;;;18.95;77.07;101042.66;5046661;27;96756;-74
2023/10/13 01:00:56;;;;;;;5.95;2.72;;;;;;;18.95;76.62;101045.34;5054974;27;97172;-74
2023/10/13 01:03:26;;;;;;;9.98;3.53;;;;;;;18.97;76.73;101049.63;5048336;27;98284;-74
2023/10/13 01:05:54;;;;;;;7.93;2.60;;;;;;;18.90;77.38;101055.50;5047230;27;100513;-74
2023/10/13 01:08:32;;;;;;;7.22;2.72;;;;;;;18.88;76.97;101054.75;5047557;27;97108;-73
2023/10/13 01:10:59;;;;;;;10.50;2.45;;;;;;;19.00;76.83;101057.47;5054894;27;98534;-74
2023/10/13 01:13:26;;;;;;;6.78;2.38;;;;;;;18.91;76.97;101046.50;5056272;27;97755;-74
2023/10/13 01:15:53;;;;;;;3.88;2.13;;;;;;;18.80;77.83;101043.66;5053815;27;98857;-74
2023/10/13 01:18:19;;;;;;;10.10;3.13;;;;;;;18.82;77.50;101042.63;5050839;27;96740;-73
2023/10/13 01:20:52;;;;;;;8.68;2.60;;;;;;;18.83;77.51;101047.00;5053824;27;96834;-74
2023/10/13 01:23:19;;;;;;;8.18;2.90;;;;;;;18.87;77.63;101042.31;5045942;27;99993;-75
2023/10/13 01:25:46;;;;;;;8.40;2.50;;;;;;;18.94;77.30;101047.16;5047943;27;100255;-74
2023/10/13 01:28:16;;;;;;;6.20;3.53;;;;;;;18.70;78.35;101052.31;5053216;27;96798;-75
2023/10/13 01:30:43;;;;;;;7.60;3.35;;;;;;;18.66;79.06;101048.09;5047362;27;96776;-74
2023/10/13 01:33:10;;;;;;;6.63;2.85;;;;;;;18.86;78.43;101053.97;5053093;27;98856;-74
2023/10/13 01:35:42;;;;;;;9.90;3.70;;;;;;;18.87;78.38;101059.22;5050359;27;98940;-73
2023/10/13 01:38:07;;;;;;;7.35;3.40;;;;;;;18.83;78.75;101052.38;5053022;27;96731;-73
2023/10/13 01:40:35;;;;;;;;;;;;;;;18.68;79.07;101054.22;5051999;27;96843;-74
2023/10/13 01:43:01;;;;;;;5.75;3.47;;;;;;;18.91;77.75;101059.88;5049245;27;98994;-75
2023/10/13 01:45:29;;;;;;;9.95;4.18;;;;;;;18.84;78.23;101053.22;5047796;27;98232;-75
2023/10/13 01:47:55;;;;;;;9.02;4.45;;;;;;;18.91;78.43;101059.88;5047125;27;96869;-75
2023/10/13 01:50:28;;;;;;;;;;;;;;;18.82;78.87;101058.69;5043381;27;96825;-74
2023/10/13 01:53:00;;;;;;;13.25;5.05;;;;;;;18.74;79.31;101050.28;5049057;27;98388;-74
2023/10/13 01:55:28;;;;;;;10.05;5.35;;;;;;;18.68;79.32;101051.53;5045364;27;101046;-74
2023/10/13 01:57:55;;;;;;;10.77;5.53;;;;;;;18.80;79.47;101044.53;5044518;27;97221;-73
2023/10/13 02:00:21;;;;;;;11.43;5.15;;;;;;;18.79;79.38;101056.19;5053619;27;96825;-73
2023/10/13 02:02:49;;;;;;;10.57;5.55;;;;;;;18.78;79.74;101048.25;5047716;27;98894;-73
2023/10/13 02:05:17;;;;;;;8.77;5.40;;;;;;;18.96;79.13;101057.78;5052660;27;99034;-73
2023/10/13 02:07:45;;;;;;;8.82;6.00;;;;;;;19.05;78.53;101049.13;5053126;27;96669;-72
2023/10/13 02:10:12;;;;;;;8.98;5.88;;;;;;;18.83;79.31;101047.00;5050825;27;96910;-73
2023/10/13 02:12:42;;;;;;;11.63;6.30;;;;;;;18.82;79.62;101023.88;5050815;27;101504;-74
2023/10/13 02:15:12;;;;;;;8.25;5.90;;;;;;;18.87;79.65;101024.44;5048202;27;98987;-73
2023/10/13 02:17:41;;;;;;;10.90;6.70;;;;;;;18.62;80.84;101016.28;5051986;27;98629;-72
2023/10/13 02:20:10;;;;;;;17.15;6.80;;;;;;;18.68;81.07;101013.19;5050586;27;97027;-74
2023/10/13 02:22:38;;;;;;;11.40;6.45;;;;;;;18.74;80.60;101006.59;5050132;27;102087;-74
2023/10/13 02:25:06;;;;;;;14.15;7.22;;;;;;;18.73;80.63;101000.38;5048584;27;98933;-72
2023/10/13 02:27:40;;;;;;;13.70;7.63;;;;;;;18.67;81.21;101004.31;5052255;27;96773;-74
2023/10/13 02:30:13;;;;;;;14.63;7.38;;;;;;;18.61;81.78;101012.75;5050954;27;96666;-73
2023/10/13 02:32:43;;;;;;;10.32;7.07;;;;;;;18.69;81.70;101012.25;5043272;27;99029;-73
2023/10/13 02:35:15;;;;;;;11.15;7.55;;;;;;;18.65;81.79;101008.88;5052163;27;101728;-73
2023/10/13 02:37:43;;;;;;;16.77;7.15;;;;;;;18.66;81.41;101010.63;5051830;27;97132;-73
2023/10/13 02:40:11;;;;;;;11.90;7.32;;;;;;;18.72;81.82;101006.69;5049301;27;97696;-73
2023/10/13 02:42:38;;;;;;;13.23;7.85;;;;;;;18.54;82.19;100992.66;5046926;27;98941;-73
2023/10/13 02:45:07;;;;;;;14.27;8.02;;;;;;;18.59;82.62;101003.06;5050413;27;100914;-73
2023/10/13 02:47:33;;;;;;;19.98;8.48;;;;;;;18.61;82.41;101007.38;5047112;27;96812;-73
2023/10/13 02:50:11;;;;;;;;;;;;;;;18.59;82.99;100995.91;5045112;27;97197;-73
2023/10/13 02:52:41;;;;;;;16.88;8.63;;;;;;;18.65;82.16;100983.94;5047185;27;98824;-74
2023/10/13 02:55:09;;;;;;;17.17;9.38;;;;;;;18.71;82.47;100989.75;5051724;27;99005;-75
2023/10/13 02:57:36;;;;;;;15.20;8.77;;;;;;;18.74;82.14;100982.50;5047515;27;97570;-75
2023/10/13 03:00:12;;;;;;;15.25;9.35;;;;;;;18.69;82.31;100986.34;5051108;27;97305;-75
2023/10/13 03:02:44;;;;;;;17.85;9.60;;;;;;;18.56;83.05;100980.06;5049331;27;101318;-75
2023/10/13 03:05:13;;;;;;;17.50;9.35;;;;;;;18.67;82.41;100977.53;5049317;27;98899;-75
2023/10/13 03:07:42;;;;;;;16.38;9.10;;;;;;;18.75;82.29;100977.03;5046466;27;96786;-75
2023/10/13 03:10:10;;;;;;;15.00;8.70;;;;;;;18.82;82.49;100964.13;5050333;27;98726;-75
2023/10/13 03:12:37;;;;;;;18.42;9.55;;;;;;;18.71;82.71;100965.66;5046966;27;100039;-74
2023/10/13 03:15:12;;;;;;;24.10;9.48;;;;;;;18.79;82.41;100958.94;5050934;27;99338;-73
2023/10/13 03:17:43;;;;;;;17.85;10.10;;;;;;;18.71;82.72;100960.31;5047194;27;97002;-74
2023/10/13 03:20:12;;;;;;;22.75;10.15;;;;;;;18.88;82.08;100951.19;5044261;27;96749;-74
2023/10/13 03:22:38;;;;;;;20.60;9.88;;;;;;;18.85;82.53;100947.84;5043766;27;98750;-74
2023/10/13 03:25:06;;;;;;;19.88;9.70;;;;;;;18.87;82.44;100943.25;5048168;27;97650;-74
2023/10/13 03:27:40;;;;;;;16.48;9.82;;;;;;;19.09;81.84;100946.22;5050739;27;96790;-75
2023/10/13 03:30:14;;;;;;;19.15;9.65;;;;;;;19.27;80.33;100936.06;5051385;27;96918;-75
2023/10/13 03:32:43;;;;;;;23.50;10.27;;;;;;;19.02;81.50;100928.84;5050518;27;99082;-75
2023/10/13 03:35:23;;;;;;;19.27;9.80;;;;;;;19.16;81.01;100931.44;5051411;27;100662;-75
2023/10/13 03:37:50;;;;;;;19.08;9.90;;;;;;;19.14;80.82;100922.63;5047497;27;97275;-74
2023/10/13 03:40:34;;;;;;;20.33;10.73;;;;;;;19.20;80.88;100914.19;5049346;27;96918;-74
2023/10/13 03:43:04;;;;;;;17.92;11.15;;;;;;;18.82;82.20;100907.91;5046014;27;98567;-74
2023/10/13 03:45:36;;;;;;;19.92;11.60;;;;;;;18.98;82.05;100906.75;5048938;27;102259;-73
2023/10/13 03:48:08;;;;;;;21.85;11.52;;;;;;;19.04;81.93;100910.81;5050037;27;96760;-73
2023/10/13 03:50:37;;;;;;;16.58;10.30;;;;;;;19.01;82.18;100911.91;5048468;27;96951;-73
2023/10/13 03:53:06;;;;;;;20.45;11.25;;;;;;;18.99;82.66;100903.09;5050322;27;98897;-73
2023/10/13 03:55:34;;;;;;;21.83;12.10;;;;;;;19.07;82.18;100900.78;5050295;27;102048;-73
2023/10/13 03:58:04;;;;;;;30.17;12.23;;;;;;;18.88;82.87;100904.81;5046714;27;97063;-72
2023/10/13 04:00:31;;;;;;;20.98;12.15;;;;;;;18.69;83.77;100903.38;5051042;27;97023;-72
2023/10/13 04:03:08;;;;;;;22.50;12.35;;;;;;;18.95;83.40;100890.03;5043927;27;99109;-72
2023/10/13 04:05:44;;;;;;;22.23;13.20;;;;;;;19.01;82.97;100879.78;5046636;27;98814;-73
2023/10/13 04:16:37;;;;;;;18.08;12.18;;;;;;;18.93;83.36;100897.31;5046589;27;97177;-74
2023/10/13 04:19:19;;;;;;;22.35;12.80;;;;;;;19.18;82.38;100902.69;5051425;27;96874;-73
2023/10/13 04:21:57;;;;;;;24.60;13.65;;;;;;;19.01;82.82;100895.84;5050911;27;96881;-74
2023/10/13 04:24:37;;;;;;;27.35;13.20;;;;;;;18.99;82.82;100891.53;5046168;27;99203;-74
2023/10/13 04:27:29;;;;;;;28.80;13.82;;;;;;;18.87;83.69;100893.22;5050986;27;98820;-74
2023/10/13 04:30:10;;;;;;;23.33;13.77;;;;;;;18.86;84.33;100886.16;5047186;27;96824;-74
2023/10/13 04:32:41;;;;;;;22.27;12.85;;;;;;;18.90;84.28;100876.13;5050051;27;97746;-73
2023/10/13 04:35:17;;;;;;;22.95;12.80;;;;;;;18.93;84.37;100875.88;5050105;27;99105;-72
2023/10/13 04:37:54;;;;;;;21.77;12.77;;;;;;;18.72;85.61;100872.84;5048987;27;98818;-72
2023/10/13 04:40:24;;;;;;;23.65;13.65;;;;;;;18.79;85.54;100866.09;5048332;27;96953;-76
2023/10/13 04:42:53;;;;;;;24.95;14.70;;;;;;;18.89;85.17;100861.00;5040305;27;97305;-78
2023/10/13 04:45:38;;;;;;;22.40;13.68;;;;;;;18.95;84.70;100849.88;5048469;27;101538;-78
2023/10/13 04:48:27;;;;;;;24.10;13.55;;;;;;;18.79;85.35;100847.38;5049200;27;97753;-78
2023/10/13 04:51:34;;;;;;;26.58;14.25;;;;;;;18.77;85.89;100849.31;5034709;27;97098;-78
2023/10/13 04:54:10;;;;;;;27.90;13.65;;;;;;;18.90;85.37;100846.66;5049790;27;97088;-77
2023/10/13 04:57:20;;;;;;;22.23;13.93;;;;;;;18.94;85.15;100848.16;5039036;27;101388;-78
2023/10/13 05:03:17;;;;;;;22.88;14.23;;;;;;;18.91;85.47;100840.31;5045315;27;97350;-80
2023/10/13 05:05:53;;;;;;;27.42;15.07;;;;;;;18.90;85.66;100852.88;5046375;27;98049;-76
2023/10/13 05:49:49;;;;;;;24.95;13.85;;;;;;;19.17;86.10;100836.69;5049055;27;97502;-79
2023/10/13 06:28:40;;;;;;;25.67;13.10;;;;;;;19.25;86.06;100845.06;5041381;27;99311;-78
2023/10/13 06:30:57;;;;;;;24.10;12.48;;;;;;;19.80;84.79;100804.50;5045171;27;97271;-77
2023/10/13 06:33:28;;;;;;;19.75;11.90;;;;;;;19.79;85.10;100807.28;5047316;27;97340;-76
2023/10/13 06:35:56;;;;;;;25.08;12.73;;;;;;;19.78;84.53;100816.28;5044410;27;99509;-76
2023/10/13 06:38:23;;;;;;;22.98;12.88;;;;;;;19.82;84.46;100817.81;5044311;27;98163;-77
2023/10/13 06:40:50;;;;;;;23.10;13.35;;;;;;;19.61;85.51;100822.03;5051512;27;97215;-76
2023/10/13 06:43:17;;;;;;;21.00;12.38;;;;;;;19.61;85.72;100811.31;5048548;27;96912;-76
2023/10/13 06:45:50;;;;;;;20.77;11.82;;;;;;;19.61;86.23;100814.84;5048869;27;103246;-77
2023/10/13 06:48:18;;;;;;;23.25;13.57;;;;;;;19.73;86.08;100807.75;5042623;27;99211;-75
2023/10/13 06:50:52;;;;;;;20.83;12.48;;;;;;;19.90;85.29;100812.72;5046194;27;97199;-77
2023/10/13 06:53:18;;;;;;;22.58;12.13;;;;;;;19.69;86.15;100801.72;5048545;27;96837;-76
2023/10/13 06:55:46;;;;;;;19.42;11.63;;;;;;;19.86;85.01;100803.19;5045152;27;99196;-77
2023/10/13 06:58:13;;;;;;;24.10;12.85;;;;;;;20.19;84.28;100805.22;5047158;27;97700;-76
2023/10/13 07:00:41;;;;;;;24.77;12.75;;;;;;;20.26;83.95;100804.66;5039332;27;97934;-77
2023/10/13 07:03:08;;;;;;;22.98;13.10;;;;;;;20.23;83.72;100801.31;5045848;27;96813;-76
2023/10/13 07:05:37;;;;;;;17.25;10.90;;;;;;;20.51;82.63;100805.50;5050279;27;99082;-76
2023/10/13 07:08:06;;;;;;;17.73;10.57;;;;;;;20.47;82.56;100799.53;5049986;27;98867;-76
2023/10/13 07:10:44;;;;;;;18.90;10.35;;;;;;;20.56;81.96;100797.94;5050212;27;96896;-77
2023/10/13 07:13:13;;;;;;;17.45;10.40;;;;;;;20.62;81.95;100801.03;5047765;27;97762;-77
2023/10/13 07:15:44;;;;;;;18.35;11.10;;;;;;;20.78;81.27;100806.09;5038084;27;98920;-77
2023/10/13 07:18:12;;;;;;;19.75;10.30;;;;;;;20.87;80.86;100810.72;5049223;27;97834;-76
2023/10/13 07:20:43;;;;;;;19.42;10.50;;;;;;;20.77;80.90;100809.75;5046117;27;97192;-77
2023/10/13 07:23:17;;;;;;;20.35;10.52;;;;;;;21.04;80.50;100806.75;5049722;27;96995;-77
2023/10/13 07:25:53;;;;;;;25.02;10.10;;;;;;;20.96;80.74;100793.91;5040051;27;97827;-78
2023/10/13 07:28:20;;;;;;;18.58;9.77;;;;;;;20.95;80.73;100800.25;5046623;27;99234;-78
2023/10/13 07:31:11;;;;;;;23.40;9.80;;;;;;;21.04;80.95;100806.75;5049478;27;96842;-77
2023/10/13 07:33:37;;;;;;;15.95;8.98;;;;;;;21.09;80.42;100791.97;5041485;27;98194;-76
2023/10/13 07:36:11;;;;;;;16.38;9.40;;;;;;;21.33;79.26;100791.91;5046062;27;98111;-76
2023/10/13 07:38:42;;;;;;;23.83;9.57;;;;;;;21.39;78.98;100795.94;5040279;27;99243;-76
2023/10/13 07:41:08;;;;;;;22.85;9.82;;;;;;;21.26;79.57;100785.31;5048911;27;97475;-77
2023/10/13 07:43:37;;;;;;;16.92;9.27;;;;;;;21.32;79.83;100781.28;5041307;27;96896;-76
2023/10/13 07:46:09;;;;;;;14.45;9.35;;;;;;;21.27;79.73;100780.78;5047731;27;99587;-76
2023/10/13 07:48:37;;;;;;;11.80;8.57;;;;;;;21.40;79.75;100768.06;5041874;27;101389;-77
2023/10/13 07:51:09;;;;;;;12.75;8.85;;;;;;;21.45;79.33;100788.25;5044307;27;97286;-77
2023/10/13 07:53:39;;;;;;;16.33;8.77;;;;;;;21.53;78.59;100790.31;5044663;27;96866;-77
2023/10/13 07:56:08;;;;;;;12.18;8.18;;;;;;;21.44;79.52;100780.31;5036926;27;98937;-76
2023/10/13 07:58:40;;;;;;;20.38;7.88;;;;;;;21.43;79.11;100784.81;5042973;27;101184;-77
2023/10/13 08:01:08;;;;;;;14.85;7.43;;;;;;;21.59;78.58;100767.47;5050504;27;96741;-78
2023/10/13 08:03:46;;;;;;;17.45;7.75;;;;;;;21.47;78.89;100774.66;5040464;27;97790;-77
2023/10/13 08:06:21;;;;;;;13.60;8.15;;;;;;;21.74;77.77;100771.56;5040082;27;98800;-79
2023/10/13 08:08:53;;;;;;;13.02;7.57;;;;;;;21.69;78.13;100769.28;5045391;27;98231;-78
2023/10/13 08:11:30;;;;;;;17.38;7.30;;;;;;;21.55;79.05;100760.63;5047640;27;96791;-77
2023/10/13 08:13:59;;;;;;;13.80;7.97;;;;;;;21.60;78.36;100759.25;5046517;27;96804;-78
2023/10/13 08:16:45;;;;;;;15.98;7.50;;;;;;;21.67;78.15;100752.41;5047713;27;99058;-78
2023/10/13 08:19:13;;;;;;;14.02;7.53;;;;;;;22.05;76.97;100753.81;5042952;27;99524;-79
2023/10/13 08:21:42;;;;;;;11.27;6.75;;;;;;;22.07;76.41;100757.22;5048024;27;96917;-78
2023/10/13 08:24:11;;;;;;;14.43;7.18;;;;;;;22.00;76.53;100753.31;5046355;27;97035;-77
2023/10/13 08:27:44;;;;;;;;;;;;;;;;;;;;;
2023/10/13 08:30:30;;;;;;;13.48;6.40;;;;;;;22.15;75.85;100734.09;5042442;27;127404;-78
2023/10/13 08:32:58;;;;;;;15.07;6.53;;;;;;;22.24;75.37;100743.22;5046858;27;97153;-78
2023/10/13 08:35:34;;;;;;;14.63;6.40;;;;;;;22.49;74.46;100739.31;5050014;27;96789;-79
2023/10/13 08:38:13;;;;;;;10.32;6.60;;;;;;;22.40;74.42;100757.09;5050810;27;99311;-78
2023/10/13 08:41:10;;;;;;;10.88;6.15;;;;;;;22.35;74.47;100739.63;5045670;27;99484;-77
2023/10/13 08:43:43;;;;;;;13.75;6.88;;;;;;;22.40;74.70;100732.00;5049726;27;97156;-76
2023/10/13 08:46:24;;;;;;;11.80;7.40;;;;;;;22.33;74.81;100720.91;5048130;27;96897;-77
2023/10/13 08:48:53;;;;;;;8.10;5.50;;;;;;;21.94;76.17;100724.22;5051778;27;99709;-77
2023/10/13 08:51:35;;;;;;;15.38;6.47;;;;;;;21.80;77.52;100714.59;5047821;27;97811;-77
2023/10/13 08:54:09;;;;;;;13.77;6.38;;;;;;;21.97;76.74;100714.09;5048927;27;97972;-76
2023/10/13 08:56:46;;;;;;;13.20;6.88;;;;;;;21.96;77.13;100714.22;5047127;27;96769;-75
2023/10/13 08:59:22;;;;;;;12.48;5.82;;;;;;;21.68;77.67;100710.22;5043664;27;100837;-77
2023/10/13 09:01:48;;;;;;;10.85;5.78;;;;;;;21.80;77.76;100711.91;5047703;27;102373;-76
2023/10/13 09:04:21;;;;;;;12.95;5.63;;;;;;;21.86;77.50;100712.25;5045449;27;97168;-76
2023/10/13 09:07:03;;;;;;;18.88;5.72;;;;;;;21.81;77.64;100698.34;5049169;27;96885;-76
2023/10/13 09:09:35;;;;;;;12.52;5.95;;;;;;;21.90;77.64;100703.94;5043249;27;98986;-76
2023/10/13 09:12:08;;;;;;;9.60;5.53;;;;;;;22.00;77.54;100711.13;5047866;27;98994;-77
2023/10/13 09:14:38;;;;;;;12.23;5.72;;;;;;;21.79;78.20;100696.78;5046068;27;96823;-77
2023/10/13 09:17:11;;;;;;;8.68;5.78;;;;;;;21.90;78.05;100698.56;5053089;27;97111;-77
2023/10/13 09:19:49;;;;;;;12.75;5.65;;;;;;;22.17;77.26;100699.84;5040788;27;101626;-76
2023/10/13 09:22:26;;;;;;;10.02;6.00;;;;;;;22.12;77.03;100695.81;5041171;27;98699;-77
2023/10/13 09:24:52;;;;;;;8.68;6.07;;;;;;;21.98;77.95;100696.97;5043581;27;96742;-77
2023/10/13 09:27:17;;;;;;;8.85;5.70;;;;;;;22.25;77.03;100688.41;5046498;27;97061;-77
2023/10/13 09:29:55;;;;;;;10.57;5.97;;;;;;;22.01;77.91;100682.41;5043040;27;99146;-76
2023/10/13 09:32:21;;;;;;;11.40;6.13;;;;;;;22.08;77.87;100673.69;5042456;27;99209;-77
2023/10/13 09:34:50;;;;;;;13.13;7.03;;;;;;;22.18;78.11;100673.78;5044686;27;97101;-77
2023/10/13 09:37:20;;;;;;;9.80;5.47;;;;;;;22.20;78.16;100677.16;5046912;27;101651;-76
2023/10/13 09:39:51;;;;;;;15.38;6.15;;;;;;;22.24;77.82;100660.66;5041379;27;98323;-77
2023/10/13 09:42:18;;;;;;;9.63;5.82;;;;;;;22.18;77.83;100654.94;5052059;27;97702;-77
2023/10/13 09:44:51;;;;;;;7.63;5.55;;;;;;;22.34;77.08;100647.25;5047181;27;96906;-76
2023/10/13 09:47:29;;;;;;;11.32;5.97;;;;;;;22.13;78.09;100641.00;5047153;27;97232;-77
2023/10/13 09:50:04;;;;;;;12.48;6.10;;;;;;;22.06;79.13;100645.19;5049256;27;100636;-76
2023/10/13 09:52:32;;;;;;;12.60;5.95;;;;;;;22.03;78.59;100632.00;5045192;27;98838;-75
2023/10/13 09:55:13;;;;;;;14.50;6.72;;;;;;;22.10;79.24;100633.19;5050304;27;97325;-75
2023/10/13 09:57:48;;;;;;;11.43;6.43;;;;;;;21.93;80.18;100631.88;5044278;27;97173;-76
2023/10/13 10:00:35;;;;;;;13.93;6.68;;;;;;;21.96;80.44;100615.53;5042820;27;98916;-76
2023/10/13 10:03:14;;;;;;;11.00;6.35;;;;;;;22.14;80.03;100621.19;5047825;27;98872;-76
2023/10/13 10:05:41;;;;;;;9.10;6.32;;;;;;;22.17;79.55;100616.41;5044710;27;97042;-77
2023/10/13 10:08:10;;;;;;;10.57;6.75;;;;;;;22.04;80.50;100615.75;5043186;27;97427;-77
2023/10/13 10:10:52;;;;;;;16.00;6.63;;;;;;;22.30;79.54;100618.03;5042877;27;99753;-77
2023/10/13 10:13:30;;;;;;;14.82;6.35;;;;;;;22.05;80.47;100613.91;5051020;27;99949;-77
2023/10/13 10:16:02;;;;;;;12.40;6.07;;;;;;;22.20;79.86;100612.56;5045925;27;97044;-77
2023/10/13 10:18:29;;;;;;;9.43;6.85;;;;;;;22.40;79.01;100617.09;5047426;27;96796;-77
2023/10/13 10:21:07;;;;;;;10.80;6.38;;;;;;;22.12;79.79;100604.34;5045535;27;99238;-77
2023/10/13 10:23:36;;;;;;;10.05;6.35;;;;;;;22.00;80.31;100602.66;5048530;27;98855;-76
2023/10/13 10:26:11;;;;;;;13.18;5.90;;;;;;;21.94;81.16;100597.78;5045176;27;97604;-77
2023/10/13 10:28:41;;;;;;;11.27;5.50;;;;;;;22.06;81.20;100600.31;5046438;27;97302;-77
2023/10/13 10:31:12;;;;;;;10.50;5.68;;;;;;;22.03;80.82;100600.59;5043539;27;99293;-76
2023/10/13 10:33:39;;;;;;;17.00;6.25;;;;;;;22.00;81.38;100594.59;5045451;27;99415;-76
2023/10/13 10:36:06;;;;;;;9.30;5.45;;;;;;;22.00;81.57;100603.53;5039133;27;96801;-76
2023/10/13 10:38:38;;;;;;;10.18;5.65;;;;;;;22.27;80.79;100589.53;5045544;27;96798;-76
2023/10/13 10:41:06;;;;;;;9.20;5.32;;;;;;;22.14;81.46;100599.66;5044948;27;98560;-77
2023/10/13 10:43:45;;;;;;;10.82;5.55;;;;;;;22.01;82.95;100591.78;5046030;27;98842;-77
2023/10/13 10:46:16;;;;;;;12.07;5.90;;;;;;;21.98;84.05;100572.38;5039501;27;96921;-77
2023/10/13 10:48:43;;;;;;;9.75;5.93;;;;;;;22.01;84.28;100572.09;5034099;27;97428;-76
2023/10/13 10:51:22;;;;;;;14.60;5.82;;;;;;;21.98;84.04;100570.53;5046855;27;99187;-77
2023/10/13 10:53:49;;;;;;;12.63;5.57;;;;;;;22.19;83.70;100570.50;5047147;27;100065;-78
2023/10/13 10:56:24;;;;;;;8.55;5.97;;;;;;;22.29;83.40;100555.28;5051733;27;96995;-77
2023/10/13 10:58:55;;;;;;;9.60;6.10;;;;;;;22.39;82.94;100564.22;5042905;27;96729;-77
2023/10/13 11:01:24;;;;;;;13.52;5.32;;;;;;;21.99;84.91;100555.25;5047996;27;99425;-76
2023/10/13 11:03:57;;;;;;;15.00;6.72;;;;;;;22.16;84.83;100544.72;5039547;27;98965;-77
2023/10/13 11:06:25;;;;;;;10.68;5.93;;;;;;;22.33;84.28;100542.38;5038153;27;96833;-77
2023/10/13 11:09:03;;;;;;;10.30;6.22;;;;;;;22.36;84.08;100537.59;5043047;27;96815;-76
2023/10/13 11:11:35;;;;;;;13.20;6.50;;;;;;;22.30;84.86;100537.28;5045412;27;99679;-76
2023/10/13 11:14:13;;;;;;;8.77;5.85;;;;;;;22.47;84.36;100532.13;5048584;27;101510;-77
2023/10/13 11:16:50;;;;;;;12.77;6.18;;;;;;;22.40;84.78;100527.41;5040899;27;96861;-77
2023/10/13 11:19:17;;;;;;;13.45;6.18;;;;;;;22.21;84.91;100522.78;5047852;27;97048;-76
2023/10/13 11:21:43;;;;;;;9.65;6.15;;;;;;;22.34;85.08;100541.41;5038465;27;99285;-78
2023/10/13 11:24:11;;;;;;;10.48;5.28;;;;;;;22.59;83.60;100531.03;5046310;27;101723;-78
2023/10/13 11:26:47;;;;;;;12.48;5.68;;;;;;;22.46;84.31;100516.94;5043026;27;96919;-76
2023/10/13 11:29:14;;;;;;;12.48;6.55;;;;;;;22.41;84.80;100527.28;5047131;27;96984;-77
2023/10/13 11:31:41;;;;;;;13.50;5.47;;;;;;;22.55;84.34;100526.06;5040492;27;99262;-76
2023/10/13 11:34:16;;;;;;;14.13;6.18;;;;;;;22.62;83.31;100513.75;5041432;27;99249;-77
2023/10/13 11:36:42;;;;;;;9.52;6.00;;;;;;;22.70;83.29;100513.94;5040751;27;96856;-77
2023/10/13 11:39:09;;;;;;;13.90;5.82;;;;;;;22.56;84.09;100501.69;5046781;27;97333;-77
2023/10/13 11:41:38;;;;;;;16.55;6.07;;;;;;;22.63;83.42;100504.69;5047150;27;99272;-77
2023/10/13 11:44:23;;;;;;;11.82;5.70;;;;;;;22.58;84.02;100502.38;5045437;27;99072;-76
2023/10/13 11:46:56;;;;;;;12.77;6.15;;;;;;;22.63;83.81;100494.78;5045129;27;96736;-77
2023/10/13 11:49:36;;;;;;;12.80;5.45;;;;;;;22.70;83.35;100491.53;5041739;27;96784;-76
2023/10/13 11:54:50;;;;;;;9.40;5.70;;;;;;;22.97;81.84;100489.06;5038909;27;98568;-76
2023/10/13 11:57:19;;;;;;;8.25;5.57;;;;;;;23.04;81.54;100485.66;5038675;27;96987;-76
2023/10/13 11:59:52;;;;;;;15.05;5.47;;;;;;;23.00;80.80;100484.22;5044777;27;96778;-76
2023/10/13 12:05:12;;;;;;;10.45;5.38;;;;;;;22.94;81.94;100467.78;5044615;27;97191;-75
2023/10/13 12:07:48;;;;;;;8.82;5.13;;;;;;;23.10;80.28;100451.06;5040046;27;97343;-77
2023/10/13 12:10:16;;;;;;;25.75;5.32;;;;;;;23.14;80.04;100453.31;5042160;27;97416;-76
2023/10/13 12:12:43;;;;;;;11.90;5.10;;;;;;;23.02;80.87;100451.75;5046293;27;99437;-76
2023/10/13 12:15:14;;;;;;;10.07;5.43;;;;;;;23.30;79.39;100456.28;5053033;27;100409;-76
2023/10/13 12:17:44;;;;;;;13.90;5.18;;;;;;;23.26;79.68;100446.78;5048601;27;96859;-77
2023/10/13 12:20:18;;;;;;;9.27;5.25;;;;;;;23.27;79.57;100443.09;5049409;27;96813;-77
2023/10/13 12:22:54;;;;;;;14.45;4.97;;;;;;;23.39;79.02;100441.94;5050894;27;99107;-76
2023/10/13 12:25:25;;;;;;;;;;;;;;;23.48;78.55;100429.50;5047030;27;98788;-76
2023/10/13 12:27:56;;;;;;;14.32;5.10;;;;;;;23.34;78.22;100430.75;5047599;27;96985;-76
2023/10/13 12:30:35;;;;;;;9.05;5.32;;;;;;;23.30;78.90;100429.31;5053016;27;97967;-76
2023/10/13 12:33:08;;;;;;;10.27;5.22;;;;;;;23.44;78.39;100420.78;5044832;27;98164;-76
2023/10/13 12:35:44;;;;;;;12.40;5.47;;;;;;;23.48;78.04;100423.25;5046432;27;100022;-76
2023/10/13 12:38:36;;;;;;;15.75;6.50;;;;;;;23.59;78.25;100406.91;5044151;27;96820;-76
2023/10/13 12:49:38;;;;;;;15.65;5.03;;;;;;;24.02;75.51;100400.94;5034137;27;98597;-78
2023/10/13 12:52:05;;;;;;;17.50;6.03;;;;;;;23.97;75.61;100395.13;5040320;27;97427;-77
2023/10/13 12:54:36;;;;;;;13.02;4.88;;;;;;;23.84;76.11;100393.59;5044610;27;98980;-77
2023/10/13 12:57:02;;;;;;;12.60;4.93;;;;;;;23.89;75.68;100387.78;5049506;27;98802;-77
2023/10/13 12:59:29;;;;;;;18.23;5.40;;;;;;;24.22;74.35;100391.75;5047182;27;97293;-77
2023/10/13 13:01:55;;;;;;;13.93;5.32;;;;;;;24.29;74.29;100371.25;5052782;27;97837;-77
2023/10/13 13:04:21;;;;;;;13.18;4.43;;;;;;;24.33;73.75;100359.16;5049069;27;98991;-76
2023/10/13 13:06:49;;;;;;;10.95;4.88;;;;;;;24.42;73.10;100355.53;5051328;27;97846;-76
2023/10/13 13:09:25;;;;;;;15.65;5.50;;;;;;;24.53;72.72;100355.34;5046783;27;96783;-76
2023/10/13 13:11:52;;;;;;;9.73;4.60;;;;;;;24.61;72.21;100349.19;5047915;27;96840;-76
2023/10/13 13:14:18;;;;;;;12.32;5.00;;;;;;;24.75;71.47;100353.16;5047561;27;99500;-76
2023/10/13 13:16:48;;;;;;;12.93;5.07;;;;;;;24.88;70.36;100346.38;5041035;27;97980;-77
2023/10/13 13:19:17;;;;;;;15.63;5.05;;;;;;;25.12;69.85;100331.41;5047193;27;97131;-76
2023/10/13 13:21:43;;;;;;;13.15;4.80;;;;;;;25.02;69.37;100343.13;5045381;27;97618;-76
2023/10/13 13:24:10;;;;;;;12.98;5.07;;;;;;;25.09;69.51;100329.00;5047369;27;100065;-77